createdAt,value
2018-05-29T00:00:47.200Z,26.96
2018-05-29T00:03:14.810Z,26.96
2018-05-29T00:05:42.461Z,26.95
2018-05-29T00:08:10.044Z,26.93
2018-05-29T00:10:37.625Z,26.93
2018-05-29T00:13:05.248Z,26.92
2018-05-29T00:15:32.844Z,26.88
2018-05-29T00:18:00.712Z,26.88
2018-05-29T00:20:28.344Z,26.86
2018-05-29T00:22:55.998Z,26.84
2018-05-29T00:25:24.165Z,26.83
2018-05-29T00:27:51.730Z,26.82
2018-05-29T00:30:19.314Z,26.80
2018-05-29T00:32:46.949Z,26.78
2018-05-29T00:35:14.600Z,26.76
2018-05-29T00:37:42.198Z,26.74
2018-05-29T00:40:09.779Z,26.73
2018-05-29T00:42:38.268Z,26.71
2018-05-29T00:45:05.892Z,26.69
2018-05-29T00:47:33.538Z,26.67
2018-05-29T00:50:01.160Z,26.64
2018-05-29T00:52:28.758Z,26.58
2018-05-29T00:55:07.951Z,26.60
2018-05-29T00:57:35.537Z,26.54
2018-05-29T01:00:03.153Z,26.54
2018-05-29T01:02:30.722Z,26.52
2018-05-29T01:04:58.862Z,26.51
2018-05-29T01:07:27.335Z,26.47
2018-05-29T01:09:54.930Z,26.45
2018-05-29T01:12:22.522Z,26.42
2018-05-29T01:14:50.106Z,26.38
2018-05-29T01:17:17.678Z,26.34
2018-05-29T01:19:45.259Z,26.30
2018-05-29T01:22:12.866Z,26.25
2018-05-29T01:24:41.064Z,26.22
2018-05-29T01:27:08.623Z,26.18
2018-05-29T01:29:36.184Z,26.15
2018-05-29T01:32:03.792Z,26.12
2018-05-29T01:34:32.091Z,26.08
2018-05-29T01:36:59.638Z,26.04
2018-05-29T01:39:27.285Z,26.00
2018-05-29T01:41:54.867Z,25.95
2018-05-29T01:44:22.439Z,25.91
2018-05-29T01:46:50.628Z,25.90
2018-05-29T01:49:18.215Z,25.89
2018-05-29T01:51:45.797Z,25.86
2018-05-29T01:54:13.422Z,25.83
2018-05-29T01:56:41.869Z,25.81
2018-05-29T01:59:09.413Z,25.78
2018-05-29T02:01:37.051Z,25.78
2018-05-29T02:04:04.629Z,25.74
2018-05-29T02:06:32.360Z,25.73
2018-05-29T02:08:59.897Z,25.70
2018-05-29T02:11:27.509Z,25.66
2018-05-29T02:13:55.077Z,25.60
2018-05-29T02:16:22.670Z,25.31
2018-05-29T02:18:50.225Z,25.55
2018-05-29T02:21:17.794Z,25.53
2018-05-29T02:23:45.339Z,25.51
2018-05-29T02:26:12.927Z,25.51
2018-05-29T02:28:40.477Z,25.50
2018-05-29T02:31:08.052Z,25.48
2018-05-29T02:33:35.673Z,25.45
2018-05-29T02:36:03.253Z,25.42
2018-05-29T02:38:30.827Z,25.41
2018-05-29T02:40:58.413Z,25.37
2018-05-29T02:43:26.019Z,25.32
2018-05-29T02:45:53.573Z,25.27
2018-05-29T02:48:21.177Z,25.24
2018-05-29T02:50:48.715Z,25.16
2018-05-29T02:53:16.357Z,25.13
2018-05-29T02:55:44.556Z,25.11
2018-05-29T02:58:12.128Z,25.12
2018-05-29T03:00:39.722Z,25.10
2018-05-29T03:03:07.307Z,25.10
2018-05-29T03:05:34.855Z,25.09
2018-05-29T03:08:02.463Z,25.08
2018-05-29T03:10:30.028Z,25.07
2018-05-29T03:12:57.655Z,25.04
2018-05-29T03:15:25.230Z,25.03
2018-05-29T03:17:52.798Z,25.02
2018-05-29T03:20:20.429Z,25.01
2018-05-29T03:22:47.956Z,25.00
2018-05-29T03:25:16.655Z,25.00
2018-05-29T03:27:44.237Z,24.99
2018-05-29T03:30:11.857Z,24.96
2018-05-29T03:32:39.454Z,24.92
2018-05-29T03:35:07.039Z,24.90
2018-05-29T03:37:34.575Z,24.87
2018-05-29T03:40:02.953Z,24.88
2018-05-29T03:42:30.494Z,24.87
2018-05-29T03:44:58.733Z,24.87
2018-05-29T03:47:26.340Z,24.87
2018-05-29T03:49:53.947Z,24.87
2018-05-29T03:52:21.530Z,24.87
2018-05-29T03:54:50.424Z,24.87
2018-05-29T03:57:18.000Z,24.88
2018-05-29T03:59:45.557Z,24.88
2018-05-29T04:02:13.213Z,24.89
2018-05-29T04:04:40.784Z,24.90
2018-05-29T04:07:08.348Z,24.91
2018-05-29T04:09:35.921Z,24.92
2018-05-29T04:12:04.345Z,24.93
2018-05-29T04:14:31.968Z,24.95
2018-05-29T04:16:59.650Z,24.96
2018-05-29T04:19:27.176Z,24.95
2018-05-29T04:21:54.745Z,24.97
2018-05-29T04:24:22.316Z,24.99
2018-05-29T04:26:50.158Z,25.00
2018-05-29T04:29:18.903Z,25.02
2018-05-29T04:31:46.455Z,25.03
2018-05-29T04:34:14.640Z,25.06
2018-05-29T04:36:42.204Z,25.11
2018-05-29T04:39:09.788Z,25.15
2018-05-29T04:41:37.350Z,25.17
2018-05-29T04:44:04.977Z,25.20
2018-05-29T04:46:32.559Z,25.21
2018-05-29T04:49:00.123Z,25.24
2018-05-29T04:51:27.686Z,25.33
2018-05-29T04:53:55.258Z,25.42
2018-05-29T04:56:22.831Z,25.50
2018-05-29T04:58:50.395Z,25.60
2018-05-29T05:01:17.992Z,25.72
2018-05-29T05:03:45.564Z,25.79
2018-05-29T05:06:13.655Z,25.84
2018-05-29T05:08:41.283Z,25.92
2018-05-29T05:11:08.850Z,26.03
2018-05-29T05:13:36.516Z,26.12
2018-05-29T05:16:04.168Z,26.25
2018-05-29T05:18:32.611Z,26.35
2018-05-29T05:21:00.206Z,26.47
2018-05-29T05:23:27.752Z,26.61
2018-05-29T05:25:55.313Z,26.68
2018-05-29T05:28:22.861Z,26.76
2018-05-29T05:30:50.651Z,26.80
2018-05-29T05:33:18.293Z,26.94
2018-05-29T05:35:45.850Z,26.98
2018-05-29T05:38:13.442Z,27.07
2018-05-29T05:40:41.080Z,27.21
2018-05-29T05:43:08.670Z,27.42
2018-05-29T05:45:36.293Z,27.60
2018-05-29T05:48:03.952Z,27.73
2018-05-29T05:50:31.577Z,27.71
2018-05-29T05:53:00.096Z,27.73
2018-05-29T05:55:27.688Z,27.82
2018-05-29T05:57:55.350Z,27.98
2018-05-29T06:00:22.955Z,28.17
2018-05-29T06:02:50.658Z,28.39
2018-05-29T06:05:18.251Z,28.65
2018-05-29T06:07:45.845Z,28.98
2018-05-29T06:10:14.291Z,29.48
2018-05-29T06:12:41.840Z,30.09
2018-05-29T06:15:09.955Z,30.54
2018-05-29T06:17:37.513Z,30.97
2018-05-29T06:20:05.095Z,31.55
2018-05-29T06:22:32.671Z,32.09
2018-05-29T06:25:00.216Z,32.48
2018-05-29T06:27:28.613Z,32.97
2018-05-29T06:29:57.506Z,33.43
2018-05-29T06:32:25.127Z,33.90
2018-05-29T06:34:52.743Z,34.31
2018-05-29T06:37:20.329Z,34.72
2018-05-29T06:39:48.008Z,35.14
2018-05-29T06:42:15.600Z,35.54
2018-05-29T06:44:43.203Z,35.97
2018-05-29T06:47:10.781Z,36.38
2018-05-29T06:49:38.490Z,36.71
2018-05-29T06:52:06.166Z,36.97
2018-05-29T06:54:33.744Z,37.32
2018-05-29T06:57:01.375Z,37.60
2018-05-29T06:59:28.981Z,37.91
2018-05-29T07:01:56.583Z,38.19
2018-05-29T07:04:24.482Z,38.47
2018-05-29T07:06:52.808Z,38.66
2018-05-29T07:09:29.220Z,38.97
2018-05-29T07:11:56.825Z,39.28
2018-05-29T07:14:25.329Z,39.62
2018-05-29T07:16:52.982Z,39.90
2018-05-29T07:19:20.621Z,40.28
2018-05-29T07:21:48.233Z,40.68
2018-05-29T07:24:15.900Z,41.03
2018-05-29T07:26:43.480Z,41.39
2018-05-29T07:29:11.032Z,41.69
2018-05-29T07:31:38.604Z,41.97
2018-05-29T07:34:06.160Z,42.26
2018-05-29T07:36:33.743Z,42.50
2018-05-29T07:39:01.797Z,42.81
2018-05-29T07:41:29.409Z,43.09
2018-05-29T07:43:56.956Z,43.24
2018-05-29T07:46:24.702Z,43.48
2018-05-29T07:48:52.285Z,43.75
2018-05-29T07:51:19.917Z,43.94
2018-05-29T07:53:47.506Z,44.22
2018-05-29T07:56:15.110Z,44.42
2018-05-29T07:58:42.713Z,44.39
2018-05-29T08:01:10.276Z,44.55
2018-05-29T08:03:37.835Z,44.64
2018-05-29T08:06:05.410Z,44.59
2018-05-29T08:08:35.936Z,44.58
2018-05-29T08:11:03.528Z,45.07
2018-05-29T08:13:31.185Z,45.48
2018-05-29T08:15:58.791Z,45.88
2018-05-29T08:18:26.478Z,46.22
2018-05-29T08:20:54.061Z,46.56
2018-05-29T08:23:21.804Z,46.85
2018-05-29T08:25:50.556Z,47.06
2018-05-29T08:28:18.125Z,47.32
2018-05-29T08:30:45.666Z,47.57
2018-05-29T08:33:13.268Z,47.79
2018-05-29T08:35:40.793Z,48.02
2018-05-29T08:38:08.375Z,48.30
2018-05-29T08:40:38.908Z,48.46
2018-05-29T08:43:06.572Z,48.64
2018-05-29T08:45:34.229Z,48.97
2018-05-29T08:48:01.821Z,49.16
2018-05-29T08:50:29.375Z,49.32
2018-05-29T08:52:56.944Z,49.28
2018-05-29T08:55:24.512Z,49.29
2018-05-29T08:57:53.043Z,49.43
2018-05-29T09:00:21.646Z,49.57
2018-05-29T09:02:49.225Z,49.59
2018-05-29T09:05:16.807Z,49.68
2018-05-29T09:07:44.371Z,49.99
2018-05-29T09:10:11.938Z,50.17
2018-05-29T09:12:39.500Z,50.56
2018-05-29T09:15:07.082Z,50.99
2018-05-29T09:17:34.696Z,51.14
2018-05-29T09:20:02.343Z,51.43
2018-05-29T09:22:29.881Z,51.76
2018-05-29T09:24:57.448Z,52.10
2018-05-29T09:27:25.033Z,52.12
2018-05-29T09:29:52.664Z,51.30
2018-05-29T09:32:20.175Z,51.20
2018-05-29T09:34:48.349Z,51.02
2018-05-29T09:37:15.909Z,51.18
2018-05-29T09:39:43.506Z,51.58
2018-05-29T09:42:11.076Z,52.01
2018-05-29T09:44:38.688Z,52.19
2018-05-29T09:47:06.252Z,52.47
2018-05-29T09:49:33.805Z,52.37
2018-05-29T09:52:01.343Z,51.52
2018-05-29T09:54:28.954Z,50.57
2018-05-29T09:56:56.479Z,49.91
2018-05-29T09:59:24.044Z,49.86
2018-05-29T10:01:51.614Z,50.56
2018-05-29T10:04:19.269Z,50.51
2018-05-29T10:06:46.815Z,50.25
2018-05-29T10:09:14.530Z,50.64
2018-05-29T10:11:42.140Z,50.96
2018-05-29T10:14:09.696Z,50.36
2018-05-29T10:16:37.233Z,49.57
2018-05-29T10:19:04.819Z,48.62
2018-05-29T10:21:32.387Z,47.76
2018-05-29T10:23:59.952Z,47.16
2018-05-29T10:26:27.507Z,47.81
2018-05-29T10:28:55.150Z,48.27
2018-05-29T10:31:22.764Z,48.40
2018-05-29T10:33:50.378Z,48.08
2018-05-29T10:36:18.594Z,47.64
2018-05-29T10:38:46.186Z,47.37
2018-05-29T10:41:13.892Z,47.64
2018-05-29T10:43:41.460Z,47.66
2018-05-29T10:46:09.138Z,48.66
2018-05-29T10:48:36.620Z,49.64
2018-05-29T10:51:04.221Z,50.42
2018-05-29T10:53:31.827Z,51.02
2018-05-29T10:55:59.442Z,51.03
2018-05-29T10:58:27.018Z,51.20
2018-05-29T11:00:54.634Z,51.27
2018-05-29T11:03:22.220Z,50.99
2018-05-29T11:05:49.796Z,50.35
2018-05-29T11:08:17.362Z,49.82
2018-05-29T11:10:44.925Z,48.79
2018-05-29T11:13:12.818Z,47.63
2018-05-29T11:15:41.116Z,46.75
2018-05-29T11:18:08.736Z,46.33
2018-05-29T11:20:36.342Z,45.88
2018-05-29T11:23:03.929Z,45.41
2018-05-29T11:25:31.522Z,44.97
2018-05-29T11:27:59.070Z,44.64
2018-05-29T11:30:26.712Z,44.36
2018-05-29T11:32:54.330Z,44.09
2018-05-29T11:35:21.900Z,43.77
2018-05-29T11:37:49.517Z,43.46
2018-05-29T11:40:17.177Z,43.19
2018-05-29T11:42:44.704Z,42.91
2018-05-29T11:45:13.095Z,42.64
2018-05-29T11:47:40.658Z,42.36
2018-05-29T11:50:08.296Z,42.15
2018-05-29T11:52:36.804Z,42.00
2018-05-29T11:55:04.400Z,41.90
2018-05-29T11:57:32.593Z,41.93
2018-05-29T12:00:00.806Z,42.01
2018-05-29T12:02:28.400Z,42.08
2018-05-29T12:04:55.952Z,42.13
2018-05-29T12:07:23.556Z,42.23
2018-05-29T12:09:51.148Z,42.36
2018-05-29T12:12:24.708Z,42.48
2018-05-29T12:14:52.286Z,42.69
2018-05-29T12:17:19.888Z,42.90
2018-05-29T12:19:48.681Z,43.08
2018-05-29T12:22:16.280Z,43.17
2018-05-29T12:24:43.911Z,43.23
2018-05-29T12:27:12.225Z,43.31
2018-05-29T12:29:39.875Z,43.37
2018-05-29T12:32:07.544Z,43.33
2018-05-29T12:34:35.148Z,43.36
2018-05-29T12:37:02.727Z,43.29
2018-05-29T12:39:30.323Z,43.22
2018-05-29T12:42:00.240Z,43.06
2018-05-29T12:44:27.800Z,42.89
2018-05-29T12:46:55.396Z,42.69
2018-05-29T12:49:23.229Z,42.52
2018-05-29T12:51:50.854Z,42.31
2018-05-29T12:54:18.448Z,42.03
2018-05-29T12:56:47.221Z,41.79
2018-05-29T12:59:14.812Z,41.52
2018-05-29T13:01:42.467Z,41.31
2018-05-29T13:04:10.056Z,41.02
2018-05-29T13:06:37.657Z,40.65
2018-05-29T13:09:06.066Z,40.23
2018-05-29T13:11:34.416Z,39.92
2018-05-29T13:14:02.015Z,39.67
2018-05-29T13:16:29.595Z,39.38
2018-05-29T13:18:57.164Z,39.01
2018-05-29T13:21:24.758Z,38.73
2018-05-29T13:23:52.336Z,38.33
2018-05-29T13:26:19.953Z,37.08
2018-05-29T13:28:47.594Z,34.94
2018-05-29T13:31:15.987Z,32.63
2018-05-29T13:33:43.602Z,30.57
2018-05-29T13:36:11.206Z,28.96
2018-05-29T13:38:40.301Z,28.01
2018-05-29T13:41:07.865Z,27.16
2018-05-29T13:43:35.481Z,26.30
2018-05-29T13:46:04.057Z,25.22
2018-05-29T13:48:31.933Z,23.74
2018-05-29T13:51:01.227Z,23.16
2018-05-29T13:53:28.961Z,22.30
2018-05-29T13:55:56.604Z,21.96
2018-05-29T13:58:24.185Z,21.83
2018-05-29T14:00:54.342Z,21.56
2018-05-29T14:03:21.911Z,21.19
2018-05-29T14:05:53.479Z,21.08
2018-05-29T14:08:21.299Z,20.93
2018-05-29T14:10:49.882Z,20.93
2018-05-29T14:13:18.002Z,20.94
2018-05-29T14:15:45.638Z,21.02
2018-05-29T14:18:13.642Z,21.20
2018-05-29T14:20:41.260Z,21.38
2018-05-29T14:23:08.947Z,21.55
2018-05-29T14:25:36.521Z,21.69
2018-05-29T14:28:04.140Z,21.84
2018-05-29T14:30:31.712Z,22.02
2018-05-29T14:32:59.292Z,22.18
2018-05-29T14:35:26.852Z,22.38
2018-05-29T14:37:54.455Z,22.45
2018-05-29T14:40:21.979Z,22.52
2018-05-29T14:42:49.543Z,22.50
2018-05-29T14:45:24.898Z,22.56
2018-05-29T14:47:52.499Z,22.63
2018-05-29T14:53:12.406Z,22.58
2018-05-29T14:55:40.015Z,22.48
2018-05-29T14:58:12.237Z,22.60
2018-05-29T15:00:46.764Z,22.61
2018-05-29T15:03:14.596Z,22.65
2018-05-29T15:05:44.124Z,22.65
2018-05-29T15:08:12.525Z,22.67
2018-05-29T15:10:41.918Z,22.69
2018-05-29T15:13:15.724Z,22.80
2018-05-29T15:15:47.870Z,22.86
2018-05-29T15:18:25.985Z,22.94
2018-05-29T15:20:54.798Z,23.02
2018-05-29T15:23:24.722Z,23.11
2018-05-29T15:25:58.217Z,23.20
2018-05-29T15:28:28.188Z,23.29
2018-05-29T15:30:56.870Z,23.38
2018-05-29T15:33:26.794Z,23.45
2018-05-29T15:35:56.907Z,23.52
2018-05-29T15:38:25.059Z,23.59
2018-05-29T15:40:55.912Z,23.62
2018-05-29T15:43:23.919Z,23.69
2018-05-29T15:45:51.747Z,23.75
2018-05-29T15:48:19.723Z,23.80
2018-05-29T15:50:47.594Z,23.85
2018-05-29T15:53:15.971Z,23.88
2018-05-29T15:55:45.414Z,23.93
2018-05-29T15:58:15.144Z,23.98
2018-05-29T16:00:43.025Z,24.01
2018-05-29T16:03:10.710Z,24.05
2018-05-29T16:05:38.878Z,24.03
2018-05-29T16:08:06.643Z,24.15
2018-05-29T16:10:34.532Z,24.14
2018-05-29T16:13:02.625Z,24.20
2018-05-29T16:15:31.579Z,24.23
2018-05-29T16:17:59.486Z,24.23
2018-05-29T16:20:28.605Z,24.18
2018-05-29T16:25:31.009Z,23.99
2018-05-29T16:27:58.872Z,23.91
2018-05-29T16:30:27.775Z,23.88
2018-05-29T16:32:56.366Z,23.83
2018-05-29T16:35:26.381Z,23.81
2018-05-29T16:37:55.363Z,23.75
2018-05-29T16:40:24.106Z,23.71
2018-05-29T16:42:54.113Z,23.74
2018-05-29T16:45:23.952Z,23.80
2018-05-29T16:47:54.156Z,23.85
2018-05-29T16:50:24.155Z,23.92
2018-05-29T16:53:09.389Z,24.01
2018-05-29T16:55:38.780Z,24.08
2018-05-29T16:58:11.457Z,24.14
2018-05-29T17:00:39.873Z,24.21
2018-05-29T17:03:09.110Z,24.37
2018-05-29T17:05:50.049Z,24.47
2018-05-29T17:08:18.121Z,24.58
2018-05-29T17:10:49.661Z,24.69
2018-05-29T17:13:18.719Z,24.78
2018-05-29T17:15:54.575Z,24.84
2018-05-29T17:18:22.387Z,24.93
2018-05-29T17:20:50.361Z,24.99
2018-05-29T17:23:19.064Z,25.04
2018-05-29T17:25:47.014Z,25.08
2018-05-29T17:31:17.954Z,25.10
2018-05-29T17:33:46.794Z,25.08
2018-05-29T17:36:16.043Z,25.09
2018-05-29T17:38:44.431Z,25.13
2018-05-29T17:41:16.285Z,25.19
2018-05-29T17:43:45.155Z,25.24
2018-05-29T17:46:14.489Z,25.29
2018-05-29T17:48:42.253Z,25.33
2018-05-29T17:51:10.018Z,25.35
2018-05-29T17:53:37.828Z,25.37
2018-05-29T17:56:05.574Z,25.36
2018-05-29T17:58:33.320Z,25.36
2018-05-29T18:01:01.027Z,25.36
2018-05-29T18:03:28.689Z,25.35
2018-05-29T18:05:56.595Z,25.25
2018-05-29T18:08:24.560Z,25.31
2018-05-29T18:10:53.098Z,25.27
2018-05-29T18:13:20.858Z,25.28
2018-05-29T18:15:48.589Z,25.28
2018-05-29T18:18:18.195Z,25.26
2018-05-29T18:20:45.788Z,25.24
2018-05-29T18:23:13.370Z,25.21
2018-05-29T18:25:40.957Z,25.21
2018-05-29T18:28:08.539Z,25.15
2018-05-29T18:30:36.163Z,25.10
2018-05-29T18:33:03.709Z,25.08
2018-05-29T18:35:31.301Z,25.09
2018-05-29T18:37:59.475Z,25.10
2018-05-29T18:40:27.154Z,25.11
2018-05-29T18:42:54.720Z,25.13
2018-05-29T18:45:22.335Z,25.13
2018-05-29T18:47:49.940Z,25.08
2018-05-29T18:50:17.565Z,25.01
2018-05-29T18:52:45.143Z,24.98
2018-05-29T18:55:12.746Z,24.94
2018-05-29T18:57:40.341Z,24.92
2018-05-29T19:00:07.911Z,24.89
2018-05-29T19:02:35.533Z,24.83
2018-05-29T19:05:03.971Z,24.76
2018-05-29T19:07:31.538Z,24.72
2018-05-29T19:10:02.928Z,24.65
2018-05-29T19:12:30.536Z,24.57
2018-05-29T19:14:58.156Z,24.53
2018-05-29T19:17:25.767Z,24.51
2018-05-29T19:19:53.375Z,24.49
2018-05-29T19:22:20.988Z,24.47
2018-05-29T19:24:48.542Z,24.48
2018-05-29T19:27:16.108Z,24.52
2018-05-29T19:29:43.651Z,24.54
2018-05-29T19:32:11.230Z,24.57
2018-05-29T19:34:38.919Z,24.61
2018-05-29T19:37:06.513Z,24.62
2018-05-29T19:39:34.143Z,24.61
2018-05-29T19:42:01.768Z,24.57
2018-05-29T19:44:29.333Z,24.55
2018-05-29T19:46:56.931Z,24.54
2018-05-29T19:49:24.557Z,24.54
2018-05-29T19:51:55.005Z,24.53
2018-05-29T19:54:31.143Z,24.57
2018-05-29T19:57:03.350Z,24.59
2018-05-29T19:59:58.053Z,24.62
2018-05-29T20:02:26.046Z,24.63
2018-05-29T20:04:53.640Z,24.64
2018-05-29T20:07:21.241Z,24.68
2018-05-29T20:09:49.097Z,24.72
2018-05-29T20:12:16.730Z,24.75
2018-05-29T20:14:44.284Z,24.76
2018-05-29T20:17:11.917Z,24.72
2018-05-29T20:19:40.141Z,24.65
2018-05-29T20:22:08.267Z,24.58
2018-05-29T20:24:35.850Z,24.56
2018-05-29T20:27:03.451Z,24.56
2018-05-29T20:29:32.832Z,24.57
2018-05-29T20:32:00.787Z,24.60
2018-05-29T20:34:28.796Z,24.65
2018-05-29T20:36:56.425Z,24.69
2018-05-29T20:39:25.262Z,24.73
2018-05-29T20:41:53.900Z,24.76
2018-05-29T20:44:22.137Z,24.79
2018-05-29T20:46:49.863Z,24.78
2018-05-29T20:49:17.781Z,24.76
2018-05-29T20:51:45.671Z,24.75
2018-05-29T20:54:13.252Z,24.73
2018-05-29T20:56:40.874Z,24.69
2018-05-29T20:59:08.457Z,24.69
2018-05-29T21:01:36.066Z,24.69
2018-05-29T21:04:03.693Z,24.69
2018-05-29T21:06:31.344Z,24.71
2018-05-29T21:08:58.923Z,24.72
2018-05-29T21:11:26.574Z,24.72
2018-05-29T21:13:54.176Z,24.72
2018-05-29T21:16:21.777Z,24.71
2018-05-29T21:18:50.347Z,24.71
2018-05-29T21:21:17.939Z,24.71
2018-05-29T21:23:46.154Z,24.69
2018-05-29T21:26:13.770Z,24.70
2018-05-29T21:28:42.988Z,24.72
2018-05-29T21:31:10.600Z,24.73
2018-05-29T21:33:38.202Z,24.75
2018-05-29T21:36:05.799Z,24.78
2018-05-29T21:38:34.555Z,24.80
2018-05-29T21:41:02.150Z,24.82
2018-05-29T21:43:29.762Z,24.82
2018-05-29T21:45:57.376Z,24.80
2018-05-29T21:48:24.957Z,24.78
2018-05-29T21:50:52.548Z,24.74
2018-05-29T21:53:20.184Z,24.71
2018-05-29T21:55:47.774Z,24.66
2018-05-29T21:58:15.537Z,24.64
2018-05-29T22:00:44.940Z,24.59
2018-05-29T22:03:12.524Z,24.57
2018-05-29T22:05:40.148Z,24.51
2018-05-29T22:08:07.788Z,24.50
2018-05-29T22:10:35.413Z,24.45
2018-05-29T22:13:03.083Z,24.39
2018-05-29T22:15:30.829Z,24.36
2018-05-29T22:17:58.483Z,24.29
2018-05-29T22:20:26.113Z,24.22
2018-05-29T22:22:53.711Z,24.18
2018-05-29T22:25:21.362Z,24.12
2018-05-29T22:27:49.001Z,24.06
2018-05-29T22:30:16.708Z,24.03
2018-05-29T22:32:44.775Z,24.01
2018-05-29T22:35:12.529Z,24.00
2018-05-29T22:37:40.249Z,23.98
2018-05-29T22:40:07.885Z,23.98
2018-05-29T22:42:35.498Z,23.98
2018-05-29T22:45:03.248Z,23.96
2018-05-29T22:47:30.870Z,23.96
2018-05-29T22:49:58.474Z,23.95
2018-05-29T22:52:26.056Z,23.95
2018-05-29T22:54:55.591Z,23.93
2018-05-29T22:57:23.752Z,23.93
2018-05-29T22:59:51.879Z,23.91
2018-05-29T23:02:19.475Z,23.90
2018-05-29T23:04:47.062Z,23.90
2018-05-29T23:07:15.447Z,23.90
2018-05-29T23:09:43.021Z,23.89
2018-05-29T23:15:00.927Z,23.85
2018-05-29T23:17:28.543Z,23.84
2018-05-29T23:19:56.448Z,23.85
2018-05-29T23:22:24.036Z,23.85
2018-05-29T23:24:51.628Z,23.84
2018-05-29T23:27:19.240Z,23.85
2018-05-29T23:29:46.769Z,23.84
2018-05-29T23:32:14.347Z,23.83
2018-05-29T23:34:41.876Z,23.81
2018-05-29T23:37:09.416Z,23.76
2018-05-29T23:39:36.965Z,23.70
2018-05-29T23:42:04.518Z,23.63
2018-05-29T23:44:32.128Z,23.56
2018-05-29T23:46:59.703Z,23.52
2018-05-29T23:49:27.259Z,23.42
2018-05-29T23:51:54.781Z,23.32
2018-05-29T23:54:22.341Z,23.27
2018-05-29T23:56:49.972Z,23.21
2018-05-29T23:59:17.567Z,23.17
